sensor_id;sensor_type;location;lat;lon;timestamp;P1;durP1;ratioP1;P2;durP2;ratioP2
11039;SDS011;5573;49.592;8.662;2023-07-02T00:00:22;577.90;;;543.80;;
11039;SDS011;5573;49.592;8.662;2023-07-02T00:02:50;557.95;;;525.33;;
11039;SDS011;5573;49.592;8.662;2023-07-02T00:05:18;583.45;;;549.65;;
11039;SDS011;5573;49.592;8.662;2023-07-02T00:07:46;554.50;;;522.00;;
11039;SDS011;5573;49.592;8.662;2023-07-02T00:10:13;539.35;;;507.60;;
11039;SDS011;5573;49.592;8.662;2023-07-02T00:12:43;552.22;;;519.67;;
11039;SDS011;5573;49.592;8.662;2023-07-02T00:15:11;553.22;;;521.00;;
11039;SDS011;5573;49.592;8.662;2023-07-02T00:17:38;544.63;;;513.58;;
11039;SDS011;5573;49.592;8.662;2023-07-02T00:20:07;540.60;;;509.55;;
11039;SDS011;5573;49.592;8.662;2023-07-02T00:22:41;556.20;;;523.75;;
11039;SDS011;5573;49.592;8.662;2023-07-02T00:25:12;536.92;;;506.02;;
11039;SDS011;5573;49.592;8.662;2023-07-02T00:27:40;553.08;;;520.58;;
11039;SDS011;5573;49.592;8.662;2023-07-02T00:30:10;526.65;;;496.30;;
11039;SDS011;5573;49.592;8.662;2023-07-02T00:32:38;543.20;;;512.00;;
11039;SDS011;5573;49.592;8.662;2023-07-02T00:35:06;551.50;;;519.53;;
11039;SDS011;5573;49.592;8.662;2023-07-02T00:37:34;554.90;;;523.15;;
11039;SDS011;5573;49.592;8.662;2023-07-02T00:40:02;527.67;;;497.00;;
11039;SDS011;5573;49.592;8.662;2023-07-02T00:42:31;548.45;;;516.40;;
11039;SDS011;5573;49.592;8.662;2023-07-02T00:44:58;531.03;;;500.17;;
11039;SDS011;5573;49.592;8.662;2023-07-02T00:47:30;528.47;;;497.98;;
11039;SDS011;5573;49.592;8.662;2023-07-02T00:50:01;528.25;;;497.60;;
11039;SDS011;5573;49.592;8.662;2023-07-02T00:52:29;520.28;;;490.15;;
11039;SDS011;5573;49.592;8.662;2023-07-02T00:54:57;535.10;;;504.65;;
11039;SDS011;5573;49.592;8.662;2023-07-02T00:57:26;548.80;;;517.55;;
11039;SDS011;5573;49.592;8.662;2023-07-02T00:59:56;536.50;;;505.00;;
11039;SDS011;5573;49.592;8.662;2023-07-02T01:02:23;533.95;;;502.90;;
11039;SDS011;5573;49.592;8.662;2023-07-02T01:04:53;550.00;;;517.90;;
11039;SDS011;5573;49.592;8.662;2023-07-02T01:07:24;531.28;;;500.88;;
11039;SDS011;5573;49.592;8.662;2023-07-02T01:09:52;535.78;;;505.20;;
11039;SDS011;5573;49.592;8.662;2023-07-02T01:12:20;550.75;;;518.63;;
11039;SDS011;5573;49.592;8.662;2023-07-02T01:14:51;542.97;;;512.13;;
11039;SDS011;5573;49.592;8.662;2023-07-02T01:17:21;546.85;;;515.17;;
11039;SDS011;5573;49.592;8.662;2023-07-02T01:19:53;547.40;;;515.22;;
11039;SDS011;5573;49.592;8.662;2023-07-02T01:22:25;534.30;;;503.73;;
11039;SDS011;5573;49.592;8.662;2023-07-02T01:24:54;536.20;;;504.98;;
11039;SDS011;5573;49.592;8.662;2023-07-02T01:27:22;538.45;;;507.63;;
11039;SDS011;5573;49.592;8.662;2023-07-02T01:29:50;534.28;;;503.17;;
11039;SDS011;5573;49.592;8.662;2023-07-02T01:32:19;518.42;;;488.77;;
11039;SDS011;5573;49.592;8.662;2023-07-02T01:34:48;534.70;;;503.70;;
11039;SDS011;5573;49.592;8.662;2023-07-02T01:37:21;529.72;;;499.08;;
11039;SDS011;5573;49.592;8.662;2023-07-02T01:39:49;550.20;;;518.53;;
11039;SDS011;5573;49.592;8.662;2023-07-02T01:42:17;494.48;;;466.13;;
11039;SDS011;5573;49.592;8.662;2023-07-02T01:44:46;550.67;;;517.95;;
11039;SDS011;5573;49.592;8.662;2023-07-02T01:47:15;514.70;;;484.67;;
11039;SDS011;5573;49.592;8.662;2023-07-02T01:49:43;549.63;;;517.58;;
11039;SDS011;5573;49.592;8.662;2023-07-02T01:52:11;562.08;;;529.08;;
11039;SDS011;5573;49.592;8.662;2023-07-02T01:54:40;555.25;;;522.38;;
11039;SDS011;5573;49.592;8.662;2023-07-02T01:57:08;557.17;;;523.92;;
11039;SDS011;5573;49.592;8.662;2023-07-02T01:59:37;559.40;;;526.78;;
11039;SDS011;5573;49.592;8.662;2023-07-02T02:02:04;546.55;;;514.58;;
11039;SDS011;5573;49.592;8.662;2023-07-02T02:04:35;558.85;;;526.17;;
11039;SDS011;5573;49.592;8.662;2023-07-02T02:07:03;512.83;;;483.27;;
11039;SDS011;5573;49.592;8.662;2023-07-02T02:09:31;553.17;;;520.85;;
11039;SDS011;5573;49.592;8.662;2023-07-02T02:12:01;530.10;;;499.33;;
11039;SDS011;5573;49.592;8.662;2023-07-02T02:14:29;544.42;;;512.58;;
11039;SDS011;5573;49.592;8.662;2023-07-02T02:16:57;547.05;;;514.75;;
11039;SDS011;5573;49.592;8.662;2023-07-02T02:19:25;549.67;;;517.08;;
11039;SDS011;5573;49.592;8.662;2023-07-02T02:21:53;548.88;;;517.08;;
11039;SDS011;5573;49.592;8.662;2023-07-02T02:24:21;562.42;;;529.38;;
11039;SDS011;5573;49.592;8.662;2023-07-02T02:26:49;522.35;;;492.38;;
11039;SDS011;5573;49.592;8.662;2023-07-02T02:29:18;540.08;;;508.83;;
11039;SDS011;5573;49.592;8.662;2023-07-02T02:31:46;551.13;;;518.92;;
11039;SDS011;5573;49.592;8.662;2023-07-02T02:34:14;549.15;;;516.85;;
11039;SDS011;5573;49.592;8.662;2023-07-02T02:36:42;521.83;;;491.85;;
11039;SDS011;5573;49.592;8.662;2023-07-02T02:39:10;522.35;;;492.40;;
11039;SDS011;5573;49.592;8.662;2023-07-02T02:41:38;507.17;;;477.92;;
11039;SDS011;5573;49.592;8.662;2023-07-02T02:44:06;528.97;;;498.48;;
11039;SDS011;5573;49.592;8.662;2023-07-02T02:46:35;531.53;;;501.08;;
11039;SDS011;5573;49.592;8.662;2023-07-02T02:49:03;547.30;;;515.67;;
11039;SDS011;5573;49.592;8.662;2023-07-02T02:51:31;525.22;;;495.48;;
11039;SDS011;5573;49.592;8.662;2023-07-02T02:53:59;526.17;;;495.42;;
11039;SDS011;5573;49.592;8.662;2023-07-02T02:56:27;521.35;;;491.05;;
11039;SDS011;5573;49.592;8.662;2023-07-02T02:58:54;532.08;;;501.20;;
11039;SDS011;5573;49.592;8.662;2023-07-02T03:01:22;521.00;;;490.65;;
11039;SDS011;5573;49.592;8.662;2023-07-02T03:03:51;515.22;;;485.13;;
11039;SDS011;5573;49.592;8.662;2023-07-02T03:06:19;534.78;;;503.55;;
11039;SDS011;5573;49.592;8.662;2023-07-02T03:08:47;499.15;;;470.42;;
11039;SDS011;5573;49.592;8.662;2023-07-02T03:11:15;513.63;;;483.45;;
11039;SDS011;5573;49.592;8.662;2023-07-02T03:13:43;535.05;;;503.63;;
11039;SDS011;5573;49.592;8.662;2023-07-02T03:16:10;509.73;;;480.38;;
11039;SDS011;5573;49.592;8.662;2023-07-02T03:18:38;484.83;;;456.83;;
11039;SDS011;5573;49.592;8.662;2023-07-02T03:21:07;524.05;;;493.23;;
11039;SDS011;5573;49.592;8.662;2023-07-02T03:23:36;530.45;;;499.85;;
11039;SDS011;5573;49.592;8.662;2023-07-02T03:26:03;523.97;;;492.80;;
11039;SDS011;5573;49.592;8.662;2023-07-02T03:28:31;537.63;;;506.10;;
11039;SDS011;5573;49.592;8.662;2023-07-02T03:31:01;507.58;;;478.50;;
11039;SDS011;5573;49.592;8.662;2023-07-02T03:33:29;509.20;;;480.10;;
11039;SDS011;5573;49.592;8.662;2023-07-02T03:35:56;521.22;;;491.02;;
11039;SDS011;5573;49.592;8.662;2023-07-02T03:38:25;511.42;;;480.70;;
11039;SDS011;5573;49.592;8.662;2023-07-02T03:40:53;528.85;;;497.73;;
11039;SDS011;5573;49.592;8.662;2023-07-02T03:43:21;505.65;;;476.15;;
11039;SDS011;5573;49.592;8.662;2023-07-02T03:45:51;527.25;;;496.77;;
11039;SDS011;5573;49.592;8.662;2023-07-02T03:48:19;520.58;;;490.35;;
11039;SDS011;5573;49.592;8.662;2023-07-02T03:50:47;494.35;;;465.63;;
11039;SDS011;5573;49.592;8.662;2023-07-02T03:53:15;483.70;;;455.88;;
11039;SDS011;5573;49.592;8.662;2023-07-02T03:55:44;512.03;;;482.52;;
11039;SDS011;5573;49.592;8.662;2023-07-02T03:58:12;515.80;;;485.70;;
11039;SDS011;5573;49.592;8.662;2023-07-02T04:00:40;483.60;;;455.70;;
11039;SDS011;5573;49.592;8.662;2023-07-02T04:03:08;507.45;;;477.55;;
11039;SDS011;5573;49.592;8.662;2023-07-02T04:05:35;519.35;;;488.55;;
11039;SDS011;5573;49.592;8.662;2023-07-02T04:08:03;510.00;;;480.27;;
11039;SDS011;5573;49.592;8.662;2023-07-02T04:10:31;516.25;;;486.30;;
11039;SDS011;5573;49.592;8.662;2023-07-02T04:13:01;511.38;;;481.00;;
11039;SDS011;5573;49.592;8.662;2023-07-02T04:15:29;492.70;;;464.20;;
11039;SDS011;5573;49.592;8.662;2023-07-02T04:17:57;496.75;;;468.25;;
11039;SDS011;5573;49.592;8.662;2023-07-02T04:20:24;501.58;;;472.80;;
11039;SDS011;5573;49.592;8.662;2023-07-02T04:22:55;506.23;;;476.90;;
11039;SDS011;5573;49.592;8.662;2023-07-02T04:25:22;476.50;;;449.08;;
11039;SDS011;5573;49.592;8.662;2023-07-02T04:28:11;501.55;;;472.58;;
11039;SDS011;5573;49.592;8.662;2023-07-02T04:30:40;508.83;;;479.65;;
11039;SDS011;5573;49.592;8.662;2023-07-02T04:33:11;509.60;;;480.77;;
11039;SDS011;5573;49.592;8.662;2023-07-02T04:35:40;499.65;;;470.83;;
11039;SDS011;5573;49.592;8.662;2023-07-02T04:38:07;489.60;;;460.77;;
11039;SDS011;5573;49.592;8.662;2023-07-02T04:40:35;503.40;;;474.35;;
11039;SDS011;5573;49.592;8.662;2023-07-02T04:43:03;501.17;;;472.73;;
11039;SDS011;5573;49.592;8.662;2023-07-02T04:45:33;483.73;;;455.88;;
11039;SDS011;5573;49.592;8.662;2023-07-02T04:48:02;482.83;;;455.40;;
11039;SDS011;5573;49.592;8.662;2023-07-02T04:50:31;502.42;;;473.73;;
11039;SDS011;5573;49.592;8.662;2023-07-02T04:52:58;504.95;;;475.58;;
11039;SDS011;5573;49.592;8.662;2023-07-02T04:55:26;514.65;;;484.25;;
11039;SDS011;5573;49.592;8.662;2023-07-02T04:57:54;484.70;;;456.55;;
11039;SDS011;5573;49.592;8.662;2023-07-02T05:00:22;515.00;;;485.23;;
11039;SDS011;5573;49.592;8.662;2023-07-02T05:02:51;509.48;;;479.98;;
11039;SDS011;5573;49.592;8.662;2023-07-02T05:05:19;479.73;;;452.02;;
11039;SDS011;5573;49.592;8.662;2023-07-02T05:07:47;486.13;;;457.98;;
11039;SDS011;5573;49.592;8.662;2023-07-02T05:10:15;506.45;;;476.38;;
11039;SDS011;5573;49.592;8.662;2023-07-02T05:12:42;504.80;;;474.90;;
11039;SDS011;5573;49.592;8.662;2023-07-02T05:15:10;504.77;;;474.75;;
11039;SDS011;5573;49.592;8.662;2023-07-02T05:17:39;490.92;;;461.45;;
11039;SDS011;5573;49.592;8.662;2023-07-02T05:20:09;522.10;;;491.58;;
11039;SDS011;5573;49.592;8.662;2023-07-02T05:22:37;534.42;;;503.17;;
11039;SDS011;5573;49.592;8.662;2023-07-02T05:25:05;502.63;;;473.50;;
11039;SDS011;5573;49.592;8.662;2023-07-02T05:27:34;533.65;;;502.00;;
11039;SDS011;5573;49.592;8.662;2023-07-02T05:32:48;505.30;;;475.77;;
11039;SDS011;5573;49.592;8.662;2023-07-02T05:35:18;501.15;;;471.83;;
11039;SDS011;5573;49.592;8.662;2023-07-02T05:37:45;486.67;;;458.30;;
11039;SDS011;5573;49.592;8.662;2023-07-02T05:40:13;497.30;;;468.50;;
11039;SDS011;5573;49.592;8.662;2023-07-02T05:42:43;507.15;;;476.98;;
11039;SDS011;5573;49.592;8.662;2023-07-02T05:45:11;513.10;;;483.17;;
11039;SDS011;5573;49.592;8.662;2023-07-02T05:47:38;519.92;;;489.88;;
11039;SDS011;5573;49.592;8.662;2023-07-02T05:50:07;518.55;;;488.33;;
11039;SDS011;5573;49.592;8.662;2023-07-02T05:52:37;517.35;;;486.98;;
11039;SDS011;5573;49.592;8.662;2023-07-02T05:55:05;527.72;;;496.73;;
11039;SDS011;5573;49.592;8.662;2023-07-02T05:57:36;511.55;;;481.70;;
11039;SDS011;5573;49.592;8.662;2023-07-02T06:00:05;521.53;;;491.70;;
11039;SDS011;5573;49.592;8.662;2023-07-02T06:02:39;518.17;;;488.33;;
11039;SDS011;5573;49.592;8.662;2023-07-02T06:05:07;508.63;;;478.42;;
11039;SDS011;5573;49.592;8.662;2023-07-02T06:07:37;502.02;;;472.83;;
11039;SDS011;5573;49.592;8.662;2023-07-02T06:10:06;520.00;;;490.13;;
11039;SDS011;5573;49.592;8.662;2023-07-02T06:12:34;524.00;;;493.48;;
11039;SDS011;5573;49.592;8.662;2023-07-02T06:15:02;503.92;;;474.83;;
11039;SDS011;5573;49.592;8.662;2023-07-02T06:17:30;505.48;;;475.80;;
11039;SDS011;5573;49.592;8.662;2023-07-02T06:20:02;529.20;;;498.55;;
11039;SDS011;5573;49.592;8.662;2023-07-02T06:22:31;528.03;;;497.42;;
11039;SDS011;5573;49.592;8.662;2023-07-02T06:25:00;508.95;;;479.95;;
11039;SDS011;5573;49.592;8.662;2023-07-02T06:27:31;544.03;;;512.50;;
11039;SDS011;5573;49.592;8.662;2023-07-02T06:29:59;541.92;;;510.52;;
11039;SDS011;5573;49.592;8.662;2023-07-02T06:32:27;535.10;;;503.85;;
11039;SDS011;5573;49.592;8.662;2023-07-02T06:34:54;510.38;;;480.95;;
11039;SDS011;5573;49.592;8.662;2023-07-02T06:37:22;523.17;;;492.55;;
11039;SDS011;5573;49.592;8.662;2023-07-02T06:39:50;526.78;;;496.23;;
11039;SDS011;5573;49.592;8.662;2023-07-02T06:42:19;546.22;;;514.50;;
11039;SDS011;5573;49.592;8.662;2023-07-02T06:44:47;566.00;;;533.15;;
11039;SDS011;5573;49.592;8.662;2023-07-02T06:47:14;545.97;;;513.22;;
11039;SDS011;5573;49.592;8.662;2023-07-02T06:49:46;540.35;;;508.58;;
11039;SDS011;5573;49.592;8.662;2023-07-02T06:52:13;530.83;;;500.25;;
11039;SDS011;5573;49.592;8.662;2023-07-02T06:54:41;535.28;;;504.13;;
11039;SDS011;5573;49.592;8.662;2023-07-02T06:57:09;522.20;;;491.33;;
11039;SDS011;5573;49.592;8.662;2023-07-02T06:59:38;558.00;;;525.35;;
11039;SDS011;5573;49.592;8.662;2023-07-02T07:02:06;548.60;;;516.83;;
11039;SDS011;5573;49.592;8.662;2023-07-02T07:04:34;575.13;;;540.90;;
11039;SDS011;5573;49.592;8.662;2023-07-02T07:07:02;555.80;;;523.38;;
11039;SDS011;5573;49.592;8.662;2023-07-02T07:09:30;564.70;;;531.28;;
11039;SDS011;5573;49.592;8.662;2023-07-02T07:11:58;584.40;;;548.95;;
11039;SDS011;5573;49.592;8.662;2023-07-02T07:14:26;539.97;;;507.20;;
11039;SDS011;5573;49.592;8.662;2023-07-02T07:16:55;537.72;;;505.55;;
11039;SDS011;5573;49.592;8.662;2023-07-02T07:19:23;500.92;;;471.05;;
11039;SDS011;5573;49.592;8.662;2023-07-02T07:21:51;483.92;;;455.70;;
11039;SDS011;5573;49.592;8.662;2023-07-02T07:24:18;473.60;;;446.20;;
11039;SDS011;5573;49.592;8.662;2023-07-02T07:26:46;460.83;;;434.05;;
11039;SDS011;5573;49.592;8.662;2023-07-02T07:29:14;467.70;;;440.77;;
11039;SDS011;5573;49.592;8.662;2023-07-02T07:31:42;457.15;;;430.92;;
11039;SDS011;5573;49.592;8.662;2023-07-02T07:34:11;439.67;;;414.40;;
11039;SDS011;5573;49.592;8.662;2023-07-02T07:36:39;405.17;;;382.02;;
11039;SDS011;5573;49.592;8.662;2023-07-02T07:39:07;405.85;;;382.65;;
11039;SDS011;5573;49.592;8.662;2023-07-02T07:41:35;382.23;;;360.40;;
11039;SDS011;5573;49.592;8.662;2023-07-02T07:44:03;351.27;;;331.45;;
11039;SDS011;5573;49.592;8.662;2023-07-02T07:46:31;342.85;;;323.25;;
11039;SDS011;5573;49.592;8.662;2023-07-02T07:48:59;347.65;;;328.42;;
11039;SDS011;5573;49.592;8.662;2023-07-02T07:51:28;357.02;;;336.80;;
11039;SDS011;5573;49.592;8.662;2023-07-02T07:53:56;342.60;;;323.13;;
11039;SDS011;5573;49.592;8.662;2023-07-02T07:56:24;375.05;;;353.50;;
11039;SDS011;5573;49.592;8.662;2023-07-02T07:58:52;375.10;;;353.33;;
11039;SDS011;5573;49.592;8.662;2023-07-02T08:01:19;412.55;;;388.55;;
11039;SDS011;5573;49.592;8.662;2023-07-02T08:03:48;434.13;;;408.65;;
11039;SDS011;5573;49.592;8.662;2023-07-02T08:06:16;427.30;;;402.70;;
11039;SDS011;5573;49.592;8.662;2023-07-02T08:08:45;445.25;;;419.67;;
11039;SDS011;5573;49.592;8.662;2023-07-02T08:11:13;412.35;;;388.42;;
11039;SDS011;5573;49.592;8.662;2023-07-02T08:13:42;384.30;;;362.20;;
11039;SDS011;5573;49.592;8.662;2023-07-02T08:16:09;361.23;;;340.42;;
11039;SDS011;5573;49.592;8.662;2023-07-02T08:18:38;368.30;;;347.27;;
11039;SDS011;5573;49.592;8.662;2023-07-02T08:21:05;360.77;;;340.40;;
11039;SDS011;5573;49.592;8.662;2023-07-02T08:23:33;371.77;;;350.00;;
11039;SDS011;5573;49.592;8.662;2023-07-02T08:26:02;411.30;;;386.83;;
11039;SDS011;5573;49.592;8.662;2023-07-02T08:28:30;406.10;;;382.85;;
11039;SDS011;5573;49.592;8.662;2023-07-02T08:30:58;402.63;;;379.40;;
11039;SDS011;5573;49.592;8.662;2023-07-02T08:33:26;412.75;;;389.00;;
11039;SDS011;5573;49.592;8.662;2023-07-02T08:35:54;411.92;;;388.27;;
11039;SDS011;5573;49.592;8.662;2023-07-02T08:38:22;408.33;;;384.60;;
11039;SDS011;5573;49.592;8.662;2023-07-02T08:40:50;412.80;;;388.60;;
11039;SDS011;5573;49.592;8.662;2023-07-02T08:43:19;429.20;;;404.05;;
11039;SDS011;5573;49.592;8.662;2023-07-02T08:45:47;433.65;;;408.23;;
11039;SDS011;5573;49.592;8.662;2023-07-02T08:48:15;438.10;;;412.92;;
11039;SDS011;5573;49.592;8.662;2023-07-02T08:50:48;452.13;;;425.40;;
11039;SDS011;5573;49.592;8.662;2023-07-02T08:53:18;455.00;;;428.35;;
11039;SDS011;5573;49.592;8.662;2023-07-02T08:55:46;437.08;;;411.73;;
11039;SDS011;5573;49.592;8.662;2023-07-02T08:58:15;435.77;;;410.65;;
11039;SDS011;5573;49.592;8.662;2023-07-02T09:03:38;449.13;;;422.98;;
11039;SDS011;5573;49.592;8.662;2023-07-02T09:06:08;446.48;;;420.33;;
11039;SDS011;5573;49.592;8.662;2023-07-02T09:08:37;423.77;;;399.38;;
11039;SDS011;5573;49.592;8.662;2023-07-02T09:11:06;424.52;;;399.88;;
11039;SDS011;5573;49.592;8.662;2023-07-02T09:13:44;437.05;;;411.23;;
11039;SDS011;5573;49.592;8.662;2023-07-02T09:16:24;445.67;;;420.23;;
11039;SDS011;5573;49.592;8.662;2023-07-02T09:19:00;418.95;;;394.75;;
11039;SDS011;5573;49.592;8.662;2023-07-02T09:21:40;397.58;;;374.35;;
11039;SDS011;5573;49.592;8.662;2023-07-02T09:24:13;408.33;;;384.08;;
11039;SDS011;5573;49.592;8.662;2023-07-02T09:26:42;381.95;;;359.55;;
11039;SDS011;5573;49.592;8.662;2023-07-02T09:29:12;388.63;;;366.15;;
11039;SDS011;5573;49.592;8.662;2023-07-02T09:31:45;378.98;;;356.70;;
11039;SDS011;5573;49.592;8.662;2023-07-02T09:34:34;347.65;;;327.48;;
11039;SDS011;5573;49.592;8.662;2023-07-02T09:37:04;367.10;;;346.13;;
11039;SDS011;5573;49.592;8.662;2023-07-02T09:39:33;360.23;;;339.48;;
11039;SDS011;5573;49.592;8.662;2023-07-02T09:42:05;361.30;;;340.55;;
11039;SDS011;5573;49.592;8.662;2023-07-02T09:44:34;350.05;;;329.85;;
11039;SDS011;5573;49.592;8.662;2023-07-02T09:47:04;364.00;;;343.30;;
11039;SDS011;5573;49.592;8.662;2023-07-02T09:49:33;359.70;;;339.20;;
11039;SDS011;5573;49.592;8.662;2023-07-02T09:52:03;377.67;;;355.65;;
11039;SDS011;5573;49.592;8.662;2023-07-02T09:54:32;362.15;;;341.38;;
11039;SDS011;5573;49.592;8.662;2023-07-02T09:57:01;373.10;;;351.88;;
11039;SDS011;5573;49.592;8.662;2023-07-02T09:59:29;357.98;;;337.38;;
11039;SDS011;5573;49.592;8.662;2023-07-02T10:01:57;347.52;;;327.65;;
11039;SDS011;5573;49.592;8.662;2023-07-02T10:04:27;332.13;;;313.17;;
11039;SDS011;5573;49.592;8.662;2023-07-02T10:06:56;336.63;;;317.58;;
11039;SDS011;5573;49.592;8.662;2023-07-02T10:09:34;348.40;;;328.58;;
11039;SDS011;5573;49.592;8.662;2023-07-02T10:12:14;350.50;;;330.13;;
11039;SDS011;5573;49.592;8.662;2023-07-02T10:14:43;340.63;;;321.10;;
11039;SDS011;5573;49.592;8.662;2023-07-02T10:17:22;341.65;;;322.05;;
11039;SDS011;5573;49.592;8.662;2023-07-02T10:19:52;335.13;;;315.83;;
11039;SDS011;5573;49.592;8.662;2023-07-02T10:22:22;337.92;;;318.30;;
11039;SDS011;5573;49.592;8.662;2023-07-02T10:24:51;334.83;;;315.67;;
11039;SDS011;5573;49.592;8.662;2023-07-02T10:27:21;340.55;;;320.75;;
11039;SDS011;5573;49.592;8.662;2023-07-02T10:30:00;357.13;;;336.13;;
11039;SDS011;5573;49.592;8.662;2023-07-02T10:32:29;360.13;;;339.17;;
11039;SDS011;5573;49.592;8.662;2023-07-02T10:34:59;366.50;;;345.08;;
11039;SDS011;5573;49.592;8.662;2023-07-02T10:37:34;370.23;;;348.83;;
11039;SDS011;5573;49.592;8.662;2023-07-02T10:40:03;347.65;;;327.75;;
11039;SDS011;5573;49.592;8.662;2023-07-02T10:42:32;344.42;;;324.15;;
11039;SDS011;5573;49.592;8.662;2023-07-02T10:45:01;349.60;;;329.20;;
11039;SDS011;5573;49.592;8.662;2023-07-02T10:47:29;330.25;;;311.70;;
11039;SDS011;5573;49.592;8.662;2023-07-02T10:49:58;351.30;;;331.05;;
11039;SDS011;5573;49.592;8.662;2023-07-02T10:52:26;344.55;;;324.98;;
11039;SDS011;5573;49.592;8.662;2023-07-02T10:55:04;349.92;;;329.63;;
11039;SDS011;5573;49.592;8.662;2023-07-02T10:57:33;350.48;;;330.23;;
11039;SDS011;5573;49.592;8.662;2023-07-02T11:00:05;338.42;;;319.13;;
11039;SDS011;5573;49.592;8.662;2023-07-02T11:02:34;346.27;;;326.30;;
11039;SDS011;5573;49.592;8.662;2023-07-02T11:05:04;344.70;;;324.70;;
11039;SDS011;5573;49.592;8.662;2023-07-02T11:07:34;345.17;;;325.40;;
11039;SDS011;5573;49.592;8.662;2023-07-02T11:10:02;353.80;;;333.40;;
11039;SDS011;5573;49.592;8.662;2023-07-02T11:12:31;346.80;;;327.17;;
11039;SDS011;5573;49.592;8.662;2023-07-02T11:15:08;340.40;;;321.05;;
11039;SDS011;5573;49.592;8.662;2023-07-02T11:17:36;338.95;;;319.77;;
11039;SDS011;5573;49.592;8.662;2023-07-02T11:20:08;344.40;;;324.60;;
11039;SDS011;5573;49.592;8.662;2023-07-02T11:22:37;343.42;;;323.20;;
11039;SDS011;5573;49.592;8.662;2023-07-02T11:25:12;354.38;;;333.88;;
11039;SDS011;5573;49.592;8.662;2023-07-02T11:27:40;358.05;;;337.85;;
11039;SDS011;5573;49.592;8.662;2023-07-02T11:30:09;355.77;;;335.83;;
11039;SDS011;5573;49.592;8.662;2023-07-02T11:32:47;365.40;;;344.33;;
11039;SDS011;5573;49.592;8.662;2023-07-02T11:35:18;364.48;;;343.88;;
11039;SDS011;5573;49.592;8.662;2023-07-02T11:37:46;362.90;;;342.23;;
11039;SDS011;5573;49.592;8.662;2023-07-02T11:40:17;355.02;;;334.73;;
11039;SDS011;5573;49.592;8.662;2023-07-02T11:42:45;357.92;;;337.70;;
11039;SDS011;5573;49.592;8.662;2023-07-02T11:45:13;364.60;;;343.98;;
11039;SDS011;5573;49.592;8.662;2023-07-02T11:47:41;360.55;;;340.60;;
11039;SDS011;5573;49.592;8.662;2023-07-02T11:50:09;360.67;;;340.77;;
11039;SDS011;5573;49.592;8.662;2023-07-02T11:52:53;361.20;;;340.63;;
11039;SDS011;5573;49.592;8.662;2023-07-02T11:55:21;355.48;;;335.63;;
11039;SDS011;5573;49.592;8.662;2023-07-02T11:57:49;367.88;;;347.27;;
11039;SDS011;5573;49.592;8.662;2023-07-02T12:00:17;381.10;;;360.08;;
11039;SDS011;5573;49.592;8.662;2023-07-02T12:02:45;377.92;;;356.85;;
11039;SDS011;5573;49.592;8.662;2023-07-02T12:05:13;366.15;;;345.27;;
11039;SDS011;5573;49.592;8.662;2023-07-02T12:07:41;368.92;;;348.25;;
11039;SDS011;5573;49.592;8.662;2023-07-02T12:10:10;372.08;;;351.27;;
11039;SDS011;5573;49.592;8.662;2023-07-02T12:12:38;360.65;;;340.15;;
11039;SDS011;5573;49.592;8.662;2023-07-02T12:15:06;369.65;;;348.83;;
11039;SDS011;5573;49.592;8.662;2023-07-02T12:17:34;365.40;;;344.92;;
11039;SDS011;5573;49.592;8.662;2023-07-02T12:20:03;389.02;;;366.65;;
11039;SDS011;5573;49.592;8.662;2023-07-02T12:22:31;350.25;;;330.52;;
11039;SDS011;5573;49.592;8.662;2023-07-02T12:24:59;363.00;;;341.95;;
11039;SDS011;5573;49.592;8.662;2023-07-02T12:27:28;376.42;;;355.02;;
11039;SDS011;5573;49.592;8.662;2023-07-02T12:29:56;388.55;;;365.90;;
11039;SDS011;5573;49.592;8.662;2023-07-02T12:32:24;376.33;;;354.63;;
11039;SDS011;5573;49.592;8.662;2023-07-02T12:34:52;377.05;;;355.23;;
11039;SDS011;5573;49.592;8.662;2023-07-02T12:37:20;392.55;;;370.02;;
11039;SDS011;5573;49.592;8.662;2023-07-02T12:39:48;375.30;;;353.80;;
11039;SDS011;5573;49.592;8.662;2023-07-02T12:42:16;384.60;;;362.33;;
11039;SDS011;5573;49.592;8.662;2023-07-02T12:44:45;374.67;;;352.92;;
11039;SDS011;5573;49.592;8.662;2023-07-02T12:47:13;383.23;;;361.17;;
11039;SDS011;5573;49.592;8.662;2023-07-02T12:49:41;383.75;;;361.73;;
11039;SDS011;5573;49.592;8.662;2023-07-02T12:52:09;373.15;;;351.88;;
11039;SDS011;5573;49.592;8.662;2023-07-02T12:54:37;390.95;;;368.83;;
11039;SDS011;5573;49.592;8.662;2023-07-02T12:57:05;372.92;;;352.08;;
11039;SDS011;5573;49.592;8.662;2023-07-02T12:59:33;378.20;;;356.90;;
11039;SDS011;5573;49.592;8.662;2023-07-02T13:02:02;369.88;;;349.20;;
11039;SDS011;5573;49.592;8.662;2023-07-02T13:04:30;396.77;;;374.75;;
11039;SDS011;5573;49.592;8.662;2023-07-02T13:06:58;385.05;;;363.92;;
11039;SDS011;5573;49.592;8.662;2023-07-02T13:09:26;378.60;;;357.67;;
11039;SDS011;5573;49.592;8.662;2023-07-02T13:11:54;401.40;;;379.35;;
11039;SDS011;5573;49.592;8.662;2023-07-02T13:14:22;394.38;;;372.10;;
11039;SDS011;5573;49.592;8.662;2023-07-02T13:16:50;405.63;;;382.85;;
11039;SDS011;5573;49.592;8.662;2023-07-02T13:19:19;408.33;;;385.83;;
11039;SDS011;5573;49.592;8.662;2023-07-02T13:21:47;411.33;;;388.52;;
11039;SDS011;5573;49.592;8.662;2023-07-02T13:24:14;395.60;;;374.02;;
11039;SDS011;5573;49.592;8.662;2023-07-02T13:26:42;426.58;;;403.40;;
11039;SDS011;5573;49.592;8.662;2023-07-02T13:29:11;421.27;;;397.92;;
11039;SDS011;5573;49.592;8.662;2023-07-02T13:31:39;413.88;;;391.30;;
11039;SDS011;5573;49.592;8.662;2023-07-02T13:34:07;417.95;;;395.00;;
11039;SDS011;5573;49.592;8.662;2023-07-02T13:39:34;410.45;;;387.95;;
11039;SDS011;5573;49.592;8.662;2023-07-02T13:42:02;404.58;;;381.83;;
11039;SDS011;5573;49.592;8.662;2023-07-02T13:44:30;416.40;;;393.27;;
11039;SDS011;5573;49.592;8.662;2023-07-02T13:46:58;432.20;;;408.25;;
11039;SDS011;5573;49.592;8.662;2023-07-02T13:49:26;413.98;;;390.70;;
11039;SDS011;5573;49.592;8.662;2023-07-02T13:51:54;417.95;;;394.67;;
11039;SDS011;5573;49.592;8.662;2023-07-02T13:54:23;403.10;;;380.90;;
11039;SDS011;5573;49.592;8.662;2023-07-02T13:56:51;414.95;;;392.05;;
11039;SDS011;5573;49.592;8.662;2023-07-02T13:59:21;410.13;;;386.88;;
11039;SDS011;5573;49.592;8.662;2023-07-02T14:01:49;408.40;;;385.38;;
11039;SDS011;5573;49.592;8.662;2023-07-02T14:04:17;420.65;;;397.05;;
11039;SDS011;5573;49.592;8.662;2023-07-02T14:06:46;413.13;;;390.25;;
11039;SDS011;5573;49.592;8.662;2023-07-02T14:09:13;427.80;;;404.00;;
11039;SDS011;5573;49.592;8.662;2023-07-02T14:11:41;418.77;;;395.38;;
11039;SDS011;5573;49.592;8.662;2023-07-02T14:14:09;435.90;;;412.13;;
11039;SDS011;5573;49.592;8.662;2023-07-02T14:16:39;436.73;;;412.90;;
11039;SDS011;5573;49.592;8.662;2023-07-02T14:19:07;411.25;;;388.38;;
11039;SDS011;5573;49.592;8.662;2023-07-02T14:21:35;423.10;;;399.55;;
11039;SDS011;5573;49.592;8.662;2023-07-02T14:24:03;428.65;;;404.70;;
11039;SDS011;5573;49.592;8.662;2023-07-02T14:26:31;423.77;;;399.90;;